Terminal Aerodrome Forecast
Issued by NWS Green Bay, WI

Home | Current Version | Previous Version | Text Only | Print | Product List | Glossary Off
Versions: 1 2 3 4 5 6 7 8 9 10 11 12 13 14 15 16 17 18 19 20 21 22 23 24 25 26 27 28 29

000
FTUS43 KGRB 301720
TAFGRB
TAF
KGRB 301720Z 3018/3118 28016G22KT P6SM SKC
     FM302000 28014G19KT P6SM SCT060
     FM310100 26006KT P6SM SKC
     FM311400 28012G17KT P6SM SKC=

USA.gov is the U.S. government's official web portal to all federal, state and local government web resources and services.